SAAR/ROS METAR and TAF weather

Enter ICAO airport designator
Station Type Date Time Source
SAAR METAR 2020/07/10 19:00 UTC NOAA

SAAR 101900Z 27006KT CAVOK 16/07 Q1009


Station Type Date Time Source
SAAR Decoded METAR 2020/07/10 19:00 UTC NOAA

Rosario Aerodrome, Argentina (SAAR) 32-55S 060-47W 25M
Jul 10, 2020 - 03:00 PM EDT / 2020.07.10 1900 UTC
Wind: from the W (270 degrees) at 7 MPH (6 KT):0
Visibility: greater than 7 mile(s):0
Temperature: 60 F (16 C)
Dew Point: 44 F (7 C)
Relative Humidity: 55%
Pressure (altimeter): 29.80 in. Hg (1009 hPa)
ob: SAAR 101900Z 27006KT CAVOK 16/07 Q1009
cycle: 19

Station Type Date Time Source
SAAR TAF 2020/07/10 18:33 UTC NOAA

TAF TAF SAAR 101700Z 1018/1118 34015KT CAVOK TX17/1019Z TN04/1111Z
BECMG 1021/1023 23005KT

Example: see airport list